Time;durP1;ratioP1;P1;durP2;ratioP2;P2;SDS_P1;SDS_P2;PMS_P1;PMS_P2;Temp;Humidity;BMP_temperature;BMP_pressure;BME280_temperature;BME280_humidity;BME280_pressure;Samples;Min_cycle;Max_cycle;Signal;HPM_P1;HPM_P2
2022/07/09 00:01:43;;;;;;;;;;;14.90;99.90;;;;;;5050707;28;19916;-80
2022/07/09 00:04:08;;;;;;;;;;;14.80;99.90;;;;;;5048264;28;19920;-78
2022/07/09 00:06:33;;;;;;;;;;;14.80;99.90;;;;;;5046231;28;20291;-78
2022/07/09 00:08:59;;;;;;;;;;;14.70;99.90;;;;;;5045925;28;20390;-77
2022/07/09 00:11:24;;;;;;;;;;;14.70;99.90;;;;;;5056758;28;19904;-77
2022/07/09 00:13:50;;;;;;;;;;;14.60;99.90;;;;;;5049901;28;19920;-77
2022/07/09 00:16:15;;;;;;;;;;;14.60;99.90;;;;;;5046524;28;19923;-78
2022/07/09 00:18:40;;;;;;;;;;;14.60;99.90;;;;;;5040619;28;19962;-78
2022/07/09 00:21:06;;;;;;;;;;;14.50;99.90;;;;;;5043961;28;20039;-77
2022/07/09 00:23:32;;;;;;;;;;;14.50;99.90;;;;;;5048716;28;19916;-77
2022/07/09 00:25:57;;;;;;;;;;;14.50;99.90;;;;;;5049013;28;20277;-78
2022/07/09 00:28:22;;;;;;;;;;;14.40;99.90;;;;;;5046719;28;19916;-78
2022/07/09 00:30:48;;;;;;;;;;;14.40;99.90;;;;;;5045495;28;19979;-77
2022/07/09 00:33:13;;;;;;;;;;;14.40;99.90;;;;;;5045777;28;19915;-78
2022/07/09 00:35:39;;;;;;;;;;;14.30;99.90;;;;;;5047272;28;19939;-79
2022/07/09 00:38:04;;;;;;;;;;;14.30;99.90;;;;;;5049813;28;19917;-77
2022/07/09 00:40:29;;;;;;;;;;;14.30;99.90;;;;;;5048666;28;20542;-78
2022/07/09 00:42:55;;;;;;;;;;;14.20;99.90;;;;;;5049929;28;19916;-78
2022/07/09 00:45:20;;;;;;;;;;;14.10;99.90;;;;;;5050008;28;19909;-79
2022/07/09 00:47:46;;;;;;;;;;;14.10;99.90;;;;;;5047778;28;20099;-78
2022/07/09 00:50:11;;;;;;;;;;;14.10;99.90;;;;;;5049425;28;19930;-78
2022/07/09 00:52:38;;;;;;;;;;;14.10;99.90;;;;;;5047547;28;19913;-79
2022/07/09 00:55:04;;;;;;;;;;;14.00;99.90;;;;;;5046873;28;19939;-79
2022/07/09 00:57:30;;;;;;;;;;;14.00;99.90;;;;;;5044396;28;19916;-78
2022/07/09 00:59:57;;;;;;;;;;;14.00;99.90;;;;;;5047563;28;19917;-79
2022/07/09 01:02:22;;;;;;;;;;;13.90;99.90;;;;;;5046733;28;19999;-79
2022/07/09 01:04:48;;;;;;;;;;;13.90;99.90;;;;;;5045868;28;20003;-79
2022/07/09 01:07:13;;;;;;;;;;;13.90;99.90;;;;;;5046255;28;20299;-80
2022/07/09 01:09:39;;;;;;;;;;;13.80;99.90;;;;;;5049331;28;19916;-77
2022/07/09 01:12:05;;;;;;;;;;;13.90;99.90;;;;;;5047890;28;19908;-79
2022/07/09 01:14:30;;;;;;;;;;;13.90;99.90;;;;;;5048826;28;19916;-79
2022/07/09 01:17:03;;;;;;;;;;;13.80;99.90;;;;;;5044552;28;19919;-78
2022/07/09 01:19:29;;;;;;;;;;;13.80;99.90;;;;;;5048741;28;19915;-78
2022/07/09 01:21:54;;;;;;;;;;;13.80;99.90;;;;;;5048110;28;19909;-79
2022/07/09 01:24:20;;;;;;;;;;;13.70;99.90;;;;;;5046409;28;19920;-78
2022/07/09 01:26:45;;;;;;;;;;;13.70;99.90;;;;;;5049141;28;19923;-79
2022/07/09 01:29:11;;;;;;;;;;;13.70;99.90;;;;;;5048217;28;19987;-80
2022/07/09 01:31:36;;;;;;;;;;;13.60;99.90;;;;;;5043611;28;19913;-77
2022/07/09 01:34:02;;;;;;;;;;;13.60;99.90;;;;;;5047882;28;19916;-86
2022/07/09 01:36:27;;;;;;;;;;;13.60;99.90;;;;;;5044990;28;19994;-83
2022/07/09 01:38:53;;;;;;;;;;;13.60;99.90;;;;;;5049570;28;19915;-84
2022/07/09 01:41:18;;;;;;;;;;;13.50;99.90;;;;;;5048063;28;19912;-85
2022/07/09 01:43:44;;;;;;;;;;;13.50;99.90;;;;;;5049160;28;19913;-87
2022/07/09 01:46:09;;;;;;;;;;;13.50;99.90;;;;;;5048490;28;19913;-89
2022/07/09 01:48:38;;;;;;;;;;;13.40;99.90;;;;;;5047831;28;19963;-85
2022/07/09 01:51:04;;;;;;;;;;;13.50;99.90;;;;;;5047171;28;19971;-87
2022/07/09 01:53:29;;;;;;;;;;;13.40;99.90;;;;;;5047809;28;19948;-87
2022/07/09 01:55:55;;;;;;;;;;;13.40;99.90;;;;;;5032185;28;20388;-86
2022/07/09 01:58:20;;;;;;;;;;;13.30;99.90;;;;;;5018910;28;20356;-88
2022/07/09 02:00:46;;;;;;;;;;;13.30;99.90;;;;;;5022972;28;19931;-86
2022/07/09 02:03:12;;;;;;;;;;;13.30;99.90;;;;;;5026916;28;19953;-87
2022/07/09 02:05:37;;;;;;;;;;;13.30;99.90;;;;;;5032546;28;19913;-88
2022/07/09 02:08:03;;;;;;;;;;;13.30;99.90;;;;;;5032847;28;19948;-88
2022/07/09 02:10:28;;;;;;;;;;;13.20;99.90;;;;;;5029523;28;19909;-87
2022/07/09 02:12:54;;;;;;;;;;;13.20;99.90;;;;;;5030817;28;19940;-86
2022/07/09 02:15:19;;;;;;;;;;;13.20;99.90;;;;;;5034595;28;19947;-85
2022/07/09 02:17:45;;;;;;;;;;;13.10;99.90;;;;;;5031262;28;19917;-88
2022/07/09 02:20:11;;;;;;;;;;;13.10;99.90;;;;;;5038170;28;19909;-87
2022/07/09 02:22:37;;;;;;;;;;;13.20;99.90;;;;;;5031183;28;19924;-87
2022/07/09 02:25:02;;;;;;;;;;;13.20;99.90;;;;;;5034585;28;19913;-88
2022/07/09 02:27:28;;;;;;;;;;;13.10;99.90;;;;;;5032687;28;19909;-88
2022/07/09 02:29:53;;;;;;;;;;;13.10;99.90;;;;;;5015106;28;20368;-85
2022/07/09 02:32:18;;;;;;;;;;;13.10;99.90;;;;;;5030942;28;20376;-87
2022/07/09 02:34:44;;;;;;;;;;;13.10;99.90;;;;;;5033224;28;19996;-85
2022/07/09 02:37:10;;;;;;;;;;;13.10;99.90;;;;;;5031423;28;19909;-81
2022/07/09 02:39:35;;;;;;;;;;;13.10;99.90;;;;;;5034521;28;19917;-88
2022/07/09 02:42:01;;;;;;;;;;;13.20;99.90;;;;;;5031913;28;19964;-87
2022/07/09 02:44:26;;;;;;;;;;;13.30;99.90;;;;;;5031454;28;19945;-87
2022/07/09 02:46:52;;;;;;;;;;;13.40;99.90;;;;;;5033169;28;19963;-85
2022/07/09 02:49:17;;;;;;;;;;;13.40;99.90;;;;;;5033632;28;19913;-87
2022/07/09 02:51:43;;;;;;;;;;;13.40;99.90;;;;;;5033111;28;19920;-86
2022/07/09 02:54:08;;;;;;;;;;;13.50;99.90;;;;;;5029109;28;19917;-87
2022/07/09 02:56:34;;;;;;;;;;;13.60;99.90;;;;;;5029728;28;19909;-87
2022/07/09 02:58:59;;;;;;;;;;;13.70;99.90;;;;;;5030945;28;20410;-88
2022/07/09 03:01:24;;;;;;;;;;;13.70;99.90;;;;;;5032546;28;20382;-87
2022/07/09 03:03:50;;;;;;;;;;;13.80;99.90;;;;;;5026887;28;21234;-86
2022/07/09 03:06:16;;;;;;;;;;;13.80;99.90;;;;;;5030648;28;19971;-87
2022/07/09 03:08:41;;;;;;;;;;;13.80;99.90;;;;;;5030435;28;19917;-87
2022/07/09 03:11:06;;;;;;;;;;;13.80;99.90;;;;;;5030495;28;19909;-86
2022/07/09 03:13:33;;;;;;;;;;;13.80;99.90;;;;;;5028574;28;19909;-88
2022/07/09 03:15:58;;;;;;;;;;;13.90;99.90;;;;;;5029049;28;19952;-86
2022/07/09 03:18:24;;;;;;;;;;;13.90;99.90;;;;;;5027688;28;20387;-88
2022/07/09 03:20:50;;;;;;;;;;;14.00;99.90;;;;;;5030635;28;19963;-88
2022/07/09 03:23:16;;;;;;;;;;;14.00;99.90;;;;;;5030915;28;19929;-88
2022/07/09 03:25:41;;;;;;;;;;;14.00;99.90;;;;;;5028645;28;20051;-87
2022/07/09 03:28:07;;;;;;;;;;;14.00;99.90;;;;;;5027152;28;19909;-87
2022/07/09 03:30:32;;;;;;;;;;;14.00;99.90;;;;;;5026842;28;19909;-86
2022/07/09 03:32:58;;;;;;;;;;;14.00;99.90;;;;;;5027200;28;19917;-86
2022/07/09 03:35:23;;;;;;;;;;;14.10;99.90;;;;;;5029498;28;19909;-87
2022/07/09 03:37:48;;;;;;;;;;;14.10;99.90;;;;;;5028122;28;19913;-88
2022/07/09 03:40:14;;;;;;;;;;;14.10;99.90;;;;;;5028318;28;19920;-88
2022/07/09 03:42:39;;;;;;;;;;;14.10;99.90;;;;;;5028437;28;19909;-88
2022/07/09 03:45:05;;;;;;;;;;;14.10;99.90;;;;;;5026506;28;19921;-86
2022/07/09 03:47:30;;;;;;;;;;;14.10;99.90;;;;;;5028358;28;19909;-88
2022/07/09 03:49:56;;;;;;;;;;;14.10;99.90;;;;;;5031119;28;19909;-86
2022/07/09 03:52:21;;;;;;;;;;;14.10;99.90;;;;;;5025419;28;20395;-86
2022/07/09 03:54:46;;;;;;;;;;;14.20;99.90;;;;;;5033313;28;19991;-86
2022/07/09 03:57:12;;;;;;;;;;;14.20;99.90;;;;;;5046879;28;20426;-87
2022/07/09 03:59:38;;;;;;;;;;;14.20;99.90;;;;;;5050914;28;19916;-88
2022/07/09 04:02:04;;;;;;;;;;;14.30;99.90;;;;;;5048721;28;20276;-87
2022/07/09 04:04:30;;;;;;;;;;;14.30;99.90;;;;;;5028222;28;19913;-89
2022/07/09 04:06:55;;;;;;;;;;;14.40;99.90;;;;;;5049995;28;19913;-87
2022/07/09 04:09:21;;;;;;;;;;;14.50;99.90;;;;;;5046343;28;19913;-87
2022/07/09 04:11:46;;;;;;;;;;;14.40;99.90;;;;;;5047045;28;20035;-87
2022/07/09 04:14:14;;;;;;;;;;;14.50;99.90;;;;;;5046905;28;19908;-86
2022/07/09 04:16:39;;;;;;;;;;;14.40;99.90;;;;;;5045878;28;19966;-85
2022/07/09 04:19:05;;;;;;;;;;;14.40;99.90;;;;;;5047619;28;19921;-87
2022/07/09 04:21:30;;;;;;;;;;;14.40;99.90;;;;;;5042662;28;19909;-87
2022/07/09 04:23:56;;;;;;;;;;;14.40;99.90;;;;;;5042347;28;20015;-87
2022/07/09 04:26:21;;;;;;;;;;;14.50;99.90;;;;;;5045150;28;19932;-86
2022/07/09 04:28:47;;;;;;;;;;;14.50;99.90;;;;;;5045284;28;20636;-87
2022/07/09 04:31:12;;;;;;;;;;;14.50;99.90;;;;;;5043998;28;19909;-86
2022/07/09 04:33:38;;;;;;;;;;;14.50;99.90;;;;;;5044572;28;19912;-86
2022/07/09 04:36:03;;;;;;;;;;;14.50;99.90;;;;;;5046171;28;19916;-87
2022/07/09 04:38:29;;;;;;;;;;;14.70;99.90;;;;;;5047761;28;19909;-87
2022/07/09 04:40:55;;;;;;;;;;;14.70;99.90;;;;;;5049490;28;19909;-87
2022/07/09 04:43:20;;;;;;;;;;;14.60;99.90;;;;;;5046479;28;20474;-87
2022/07/09 04:45:46;;;;;;;;;;;14.60;99.90;;;;;;5047902;28;20390;-85
2022/07/09 04:48:11;;;;;;;;;;;14.70;99.90;;;;;;5045796;28;19926;-85
2022/07/09 04:50:36;;;;;;;;;;;14.70;99.90;;;;;;5048439;28;20003;-86
2022/07/09 04:53:02;;;;;;;;;;;14.80;99.90;;;;;;5047296;28;19909;-84
2022/07/09 04:55:27;;;;;;;;;;;14.80;99.90;;;;;;5048740;28;19917;-86
2022/07/09 04:57:53;;;;;;;;;;;14.80;99.90;;;;;;5047558;28;20269;-86
2022/07/09 05:00:18;;;;;;;;;;;14.90;99.90;;;;;;5046281;28;19912;-83
2022/07/09 05:02:46;;;;;;;;;;;14.80;99.90;;;;;;5047719;28;20271;-84
2022/07/09 05:05:13;;;;;;;;;;;14.80;99.90;;;;;;5046737;28;19919;-84
2022/07/09 05:07:39;;;;;;;;;;;14.80;99.90;;;;;;5046328;28;19912;-86
2022/07/09 05:10:05;;;;;;;;;;;14.70;99.90;;;;;;5047581;28;19908;-88
2022/07/09 05:12:30;;;;;;;;;;;14.70;99.90;;;;;;5047493;28;19909;-85
2022/07/09 05:14:56;;;;;;;;;;;14.80;99.90;;;;;;5047641;28;20363;-88
2022/07/09 05:17:22;;;;;;;;;;;14.90;99.90;;;;;;5047041;28;20004;-87
2022/07/09 05:19:47;;;;;;;;;;;15.00;99.90;;;;;;5046417;28;20020;-87
2022/07/09 05:22:12;;;;;;;;;;;15.10;99.90;;;;;;5046035;28;20572;-87
2022/07/09 05:24:38;;;;;;;;;;;15.10;99.90;;;;;;5049371;28;19991;-85
2022/07/09 05:27:04;;;;;;;;;;;15.20;99.90;;;;;;5046757;28;19916;-87
2022/07/09 05:29:29;;;;;;;;;;;15.30;99.90;;;;;;5046449;28;19916;-84
2022/07/09 05:31:57;;;;;;;;;;;15.30;99.90;;;;;;5046135;28;20544;-87
2022/07/09 05:34:23;;;;;;;;;;;15.30;99.90;;;;;;5044826;28;19909;-86
2022/07/09 05:36:48;;;;;;;;;;;15.30;99.90;;;;;;5044534;28;19924;-87
2022/07/09 05:39:14;;;;;;;;;;;15.30;99.90;;;;;;5045655;28;19909;-87
2022/07/09 05:41:39;;;;;;;;;;;15.40;99.90;;;;;;5047927;28;21416;-86
2022/07/09 05:44:05;;;;;;;;;;;15.50;99.90;;;;;;5050072;28;19916;-86
2022/07/09 05:46:30;;;;;;;;;;;15.50;99.90;;;;;;5048915;28;19951;-85
2022/07/09 05:48:56;;;;;;;;;;;15.60;99.90;;;;;;5043122;28;19912;-87
2022/07/09 05:51:21;;;;;;;;;;;15.70;99.90;;;;;;5047233;28;20252;-87
2022/07/09 05:53:46;;;;;;;;;;;15.90;99.90;;;;;;5048157;28;19913;-87
2022/07/09 05:56:12;;;;;;;;;;;15.80;99.90;;;;;;5047499;28;19908;-85
2022/07/09 05:58:38;;;;;;;;;;;15.80;99.90;;;;;;5030033;28;20383;-84
2022/07/09 06:01:04;;;;;;;;;;;15.80;99.90;;;;;;5033208;28;20427;-85
2022/07/09 06:03:30;;;;;;;;;;;15.90;99.90;;;;;;5027880;28;19956;-85
2022/07/09 06:05:55;;;;;;;;;;;16.00;99.90;;;;;;5028361;28;19956;-87
2022/07/09 06:08:20;;;;;;;;;;;16.20;99.90;;;;;;5028887;28;19967;-83
2022/07/09 06:10:46;;;;;;;;;;;16.30;99.90;;;;;;5026759;28;20607;-86
2022/07/09 06:13:11;;;;;;;;;;;16.40;99.90;;;;;;5018823;28;20364;-84
2022/07/09 06:15:37;;;;;;;;;;;16.20;99.90;;;;;;5032393;28;19915;-82
2022/07/09 06:18:02;;;;;;;;;;;16.20;99.90;;;;;;5047346;28;19915;-84
2022/07/09 06:20:27;;;;;;;;;;;16.30;99.90;;;;;;5028161;28;19916;-86
2022/07/09 06:22:53;;;;;;;;;;;16.40;99.90;;;;;;5030262;28;19909;-80
2022/07/09 06:25:18;;;;;;;;;;;16.40;99.90;;;;;;5031433;28;20378;-82
2022/07/09 06:27:44;;;;;;;;;;;16.40;99.90;;;;;;5043473;28;19909;-85
2022/07/09 06:30:09;;;;;;;;;;;16.40;99.90;;;;;;5030610;28;19963;-86
2022/07/09 06:32:35;;;;;;;;;;;16.30;99.90;;;;;;5028864;28;19977;-81
2022/07/09 06:35:00;;;;;;;;;;;16.20;99.90;;;;;;5027068;28;19909;-86
2022/07/09 06:37:25;;;;;;;;;;;16.30;99.90;;;;;;5040163;28;19908;-82
2022/07/09 06:39:55;;;;;;;;;;;16.60;99.90;;;;;;5032251;28;20011;-79
2022/07/09 06:42:20;;;;;;;;;;;16.70;99.90;;;;;;5032029;28;20471;-85
2022/07/09 06:44:46;;;;;;;;;;;16.80;99.90;;;;;;5026871;28;19916;-86
2022/07/09 06:47:11;;;;;;;;;;;17.00;99.90;;;;;;5040938;28;20493;-86
2022/07/09 06:49:37;;;;;;;;;;;17.00;99.90;;;;;;5037129;28;20039;-86
2022/07/09 06:52:03;;;;;;;;;;;16.90;99.90;;;;;;5048543;28;19946;-84
2022/07/09 06:54:28;;;;;;;;;;;17.00;99.90;;;;;;5032342;28;20004;-84
2022/07/09 06:56:54;;;;;;;;;;;16.90;99.90;;;;;;5030075;28;19912;-85
2022/07/09 06:59:21;;;;;;;;;;;17.00;99.90;;;;;;5031745;28;19909;-83
2022/07/09 07:01:47;;;;;;;;;;;17.00;99.90;;;;;;5033356;28;19909;-86
2022/07/09 07:04:14;;;;;;;;;;;16.90;99.90;;;;;;5037820;28;20374;-83
2022/07/09 07:06:42;;;;;;;;;;;17.00;99.90;;;;;;5038876;28;19917;-84
2022/07/09 07:09:08;;;;;;;;;;;17.20;99.90;;;;;;5032051;28;19909;-86
2022/07/09 07:11:34;;;;;;;;;;;17.40;99.90;;;;;;5032464;28;19916;-83
2022/07/09 07:13:59;;;;;;;;;;;17.70;99.90;;;;;;5039263;28;20367;-81
2022/07/09 07:16:24;;;;;;;;;;;17.60;99.90;;;;;;5052571;28;19977;-83
2022/07/09 07:18:50;;;;;;;;;;;17.60;99.90;;;;;;5030924;28;19953;-81
2022/07/09 07:21:15;;;;;;;;;;;17.70;99.90;;;;;;5036299;28;19999;-81
2022/07/09 07:23:41;;;;;;;;;;;17.70;99.90;;;;;;5030081;28;20319;-86
2022/07/09 07:26:06;;;;;;;;;;;17.80;99.90;;;;;;5032943;28;20410;-84
2022/07/09 07:28:32;;;;;;;;;;;17.80;99.90;;;;;;5030645;28;19909;-83
2022/07/09 07:30:57;;;;;;;;;;;17.60;99.90;;;;;;5031578;28;19951;-79
2022/07/09 07:33:23;;;;;;;;;;;17.60;99.90;;;;;;5030647;28;20364;-84
2022/07/09 07:35:48;;;;;;;;;;;17.70;99.90;;;;;;5033153;28;19913;-83
2022/07/09 07:38:14;;;;;;;;;;;17.80;99.90;;;;;;5045276;28;19991;-83
2022/07/09 07:40:39;;;;;;;;;;;17.90;99.90;;;;;;5030807;28;19963;-84
2022/07/09 07:43:05;;;;;;;;;;;17.90;99.90;;;;;;5020539;28;20346;-84
2022/07/09 07:45:31;;;;;;;;;;;17.80;99.90;;;;;;5028907;28;20398;-80
2022/07/09 07:47:56;;;;;;;;;;;17.70;99.90;;;;;;5030375;28;19917;-84
2022/07/09 07:50:22;;;;;;;;;;;17.50;99.90;;;;;;5034981;28;19972;-86
2022/07/09 07:52:47;;;;;;;;;;;17.50;99.90;;;;;;5036879;28;19916;-84
2022/07/09 07:55:13;;;;;;;;;;;17.40;99.90;;;;;;5042959;28;19924;-85
2022/07/09 07:57:38;;;;;;;;;;;17.30;99.90;;;;;;5053084;28;19937;-82
2022/07/09 08:00:04;;;;;;;;;;;17.20;99.90;;;;;;5050119;28;19909;-77
2022/07/09 08:02:30;;;;;;;;;;;17.10;99.90;;;;;;5051544;28;20266;-81
2022/07/09 08:04:55;;;;;;;;;;;17.00;99.90;;;;;;5052503;28;20390;-82
2022/07/09 08:07:21;;;;;;;;;;;17.00;99.90;;;;;;5041706;28;19908;-83
2022/07/09 08:09:46;;;;;;;;;;;17.10;99.90;;;;;;5052337;28;19908;-77
2022/07/09 08:12:11;;;;;;;;;;;17.40;99.90;;;;;;5049542;28;19905;-77
2022/07/09 08:14:37;;;;;;;;;;;17.50;99.90;;;;;;5048966;28;20015;-78
2022/07/09 08:17:02;;;;;;;;;;;17.60;99.90;;;;;;5050511;28;19919;-76
2022/07/09 08:19:28;;;;;;;;;;;17.80;99.90;;;;;;5047966;28;19925;-76
2022/07/09 08:21:53;;;;;;;;;;;18.00;99.90;;;;;;5050658;28;19916;-76
2022/07/09 08:24:19;;;;;;;;;;;18.20;99.90;;;;;;5049967;28;19924;-77
2022/07/09 08:26:44;;;;;;;;;;;18.40;99.90;;;;;;5051357;28;19916;-76
2022/07/09 08:29:09;;;;;;;;;;;18.10;99.90;;;;;;5051553;28;19908;-76
2022/07/09 08:31:35;;;;;;;;;;;18.20;99.90;;;;;;5054520;28;19919;-77
2022/07/09 08:34:00;;;;;;;;;;;17.90;99.90;;;;;;5050412;28;19970;-76
2022/07/09 08:36:26;;;;;;;;;;;18.00;99.90;;;;;;5048413;28;19924;-76
2022/07/09 08:38:51;;;;;;;;;;;18.10;99.90;;;;;;5050490;28;20016;-81
2022/07/09 08:41:19;;;;;;;;;;;18.00;99.90;;;;;;5050824;28;19959;-81
2022/07/09 08:43:48;;;;;;;;;;;17.90;99.90;;;;;;5050646;28;19955;-82
2022/07/09 08:46:13;;;;;;;;;;;17.80;99.90;;;;;;5049202;28;19927;-82
2022/07/09 08:48:39;;;;;;;;;;;18.10;99.90;;;;;;5044615;28;20326;-85
2022/07/09 08:51:05;;;;;;;;;;;18.20;99.90;;;;;;5053403;28;19909;-82
2022/07/09 08:53:30;;;;;;;;;;;18.30;99.90;;;;;;5049847;28;20364;-85
2022/07/09 08:55:56;;;;;;;;;;;18.30;99.90;;;;;;5045806;28;19948;-83
2022/07/09 08:58:22;;;;;;;;;;;18.40;99.90;;;;;;5047407;28;19908;-86
2022/07/09 09:00:48;;;;;;;;;;;18.60;99.90;;;;;;5057430;28;20038;-86
2022/07/09 09:03:13;;;;;;;;;;;18.40;99.90;;;;;;5049073;28;20439;-86
2022/07/09 09:05:39;;;;;;;;;;;18.50;99.90;;;;;;5050069;28;19904;-86
2022/07/09 09:08:21;;;;;;;;;;;18.50;99.90;;;;;;5047843;28;19909;-84
2022/07/09 09:10:47;;;;;;;;;;;18.70;99.90;;;;;;5053368;28;19908;-87
2022/07/09 09:13:16;;;;;;;;;;;18.60;99.90;;;;;;5057560;28;19904;-85
2022/07/09 09:15:42;;;;;;;;;;;18.40;99.90;;;;;;5050560;28;20323;-86
2022/07/09 09:18:08;;;;;;;;;;;18.30;99.90;;;;;;5048937;28;19909;-79
2022/07/09 09:20:34;;;;;;;;;;;18.10;99.90;;;;;;5050497;28;20318;-81
2022/07/09 09:23:01;;;;;;;;;;;17.90;99.90;;;;;;5054672;28;19935;-80
2022/07/09 09:25:27;;;;;;;;;;;17.80;99.90;;;;;;5042473;28;19918;-81
2022/07/09 09:27:56;;;;;;;;;;;17.60;99.90;;;;;;5049358;28;20067;-80
2022/07/09 09:30:22;;;;;;;;;;;17.70;99.90;;;;;;5044712;28;19909;-82
2022/07/09 09:33:03;;;;;;;;;;;17.50;99.90;;;;;;5046452;28;19908;-79
2022/07/09 09:35:29;;;;;;;;;;;17.20;99.90;;;;;;5050652;28;19908;-80
2022/07/09 09:37:56;;;;;;;;;;;16.90;99.90;;;;;;5052003;28;19909;-79
2022/07/09 09:40:22;;;;;;;;;;;17.00;99.90;;;;;;5048689;28;19909;-81
2022/07/09 09:42:48;;;;;;;;;;;17.10;99.90;;;;;;5048458;28;19923;-78
2022/07/09 09:45:14;;;;;;;;;;;17.40;99.90;;;;;;5055269;28;19913;-79
2022/07/09 09:47:44;;;;;;;;;;;17.30;99.90;;;;;;5044515;28;19963;-77
2022/07/09 09:50:13;;;;;;;;;;;17.40;99.90;;;;;;5039254;28;20352;-77
2022/07/09 09:52:39;;;;;;;;;;;17.50;99.90;;;;;;5047273;28;19921;-77
2022/07/09 09:55:05;;;;;;;;;;;17.60;99.90;;;;;;5045776;28;20347;-82
2022/07/09 09:57:31;;;;;;;;;;;17.60;99.90;;;;;;5026427;28;19913;-84
2022/07/09 09:59:59;;;;;;;;;;;18.10;99.90;;;;;;5029315;28;19915;-79
2022/07/09 10:02:25;;;;;;;;;;;18.30;99.90;;;;;;5030452;28;20004;-78
2022/07/09 10:04:50;;;;;;;;;;;18.30;99.90;;;;;;5026832;28;19943;-86
2022/07/09 10:07:16;;;;;;;;;;;18.20;99.90;;;;;;5009075;28;19962;-81
2022/07/09 10:09:52;;;;;;;;;;;18.30;99.90;;;;;;5018095;28;19979;-85
2022/07/09 10:12:24;;;;;;;;;;;18.50;99.90;;;;;;5027572;28;20283;-83
2022/07/09 10:14:50;;;;;;;;;;;18.70;99.90;;;;;;5028810;28;20012;-86
2022/07/09 10:17:16;;;;;;;;;;;18.60;99.90;;;;;;5026927;28;20380;-82
2022/07/09 10:20:11;;;;;;;;;;;18.50;99.90;;;;;;5022034;28;19917;-79
2022/07/09 10:22:37;;;;;;;;;;;18.80;99.90;;;;;;5018391;28;19913;-87
2022/07/09 10:25:03;;;;;;;;;;;19.00;99.90;;;;;;5026124;28;19951;-79
2022/07/09 10:27:29;;;;;;;;;;;19.40;99.90;;;;;;5033706;28;19978;-79
2022/07/09 10:29:54;;;;;;;;;;;19.90;99.90;;;;;;5029666;28;19909;-79
2022/07/09 10:32:27;;;;;;;;;;;20.20;99.90;;;;;;5027186;28;19913;-81
2022/07/09 10:34:56;;;;;;;;;;;20.10;99.90;;;;;;5027937;28;19909;-82
2022/07/09 10:37:35;;;;;;;;;;;19.90;99.90;;;;;;5051336;28;19936;-83
2022/07/09 10:40:04;;;;;;;;;;;20.00;99.90;;;;;;5033734;28;19909;-78
2022/07/09 10:42:30;;;;;;;;;;;20.50;99.90;;;;;;5038383;28;19928;-76
2022/07/09 10:44:55;;;;;;;;;;;20.60;99.90;;;;;;5033153;28;19916;-79
2022/07/09 10:47:20;;;;;;;;;;;20.10;99.90;;;;;;5044427;28;20363;-83
2022/07/09 10:49:46;;;;;;;;;;;20.20;99.90;;;;;;5043863;28;19952;-79
2022/07/09 10:52:11;;;;;;;;;;;20.10;99.90;;;;;;5034861;28;19905;-79
2022/07/09 10:54:47;;;;;;;;;;;20.80;99.90;;;;;;5050014;28;20482;-81
2022/07/09 10:57:13;;;;;;;;;;;21.30;99.90;;;;;;5058434;28;19912;-82
2022/07/09 10:59:38;;;;;;;;;;;21.10;97.90;;;;;;5053629;28;19908;-79
2022/07/09 11:02:04;;;;;;;;;;;21.10;99.30;;;;;;5053717;28;20010;-81
2022/07/09 11:04:31;;;;;;;;;;;21.60;98.70;;;;;;5048300;28;20359;-82
2022/07/09 11:06:56;;;;;;;;;;;21.90;95.40;;;;;;5056791;28;19913;-80
2022/07/09 11:09:22;;;;;;;;;;;21.90;93.40;;;;;;5064681;28;19916;-81
2022/07/09 11:11:47;;;;;;;;;;;21.70;91.90;;;;;;5054081;28;19955;-81
2022/07/09 11:14:13;;;;;;;;;;;21.40;93.20;;;;;;5053438;28;19916;-78
2022/07/09 11:16:39;;;;;;;;;;;21.60;93.80;;;;;;5051947;28;19939;-78
2022/07/09 11:19:14;;;;;;;;;;;21.60;91.70;;;;;;5049571;28;20430;-80
2022/07/09 11:21:40;;;;;;;;;;;21.80;91.90;;;;;;5050953;28;19932;-85
2022/07/09 11:24:15;;;;;;;;;;;22.80;90.20;;;;;;5051831;28;20394;-77
2022/07/09 11:26:40;;;;;;;;;;;23.10;85.50;;;;;;5046063;28;20003;-84
2022/07/09 11:29:09;;;;;;;;;;;22.40;86.70;;;;;;5054882;28;20433;-78
2022/07/09 11:31:35;;;;;;;;;;;22.20;88.80;;;;;;5047588;28;19927;-81
2022/07/09 11:34:13;;;;;;;;;;;22.00;86.40;;;;;;5049591;28;19913;-84
2022/07/09 11:36:39;;;;;;;;;;;21.70;87.80;;;;;;5051218;28;19916;-81
2022/07/09 11:39:04;;;;;;;;;;;21.70;88.50;;;;;;5046545;28;19916;-79
2022/07/09 11:41:40;;;;;;;;;;;21.60;88.40;;;;;;5050782;28;19923;-86
2022/07/09 11:44:05;;;;;;;;;;;21.40;87.80;;;;;;5052492;28;19916;-78
2022/07/09 11:46:30;;;;;;;;;;;21.50;88.70;;;;;;5050112;28;19924;-77
2022/07/09 11:48:56;;;;;;;;;;;21.40;90.20;;;;;;5048547;28;19913;-80
2022/07/09 11:51:30;;;;;;;;;;;22.20;88.70;;;;;;5049028;28;19908;-78
2022/07/09 11:53:56;;;;;;;;;;;22.90;87.40;;;;;;5048269;28;19909;-84
2022/07/09 11:56:22;;;;;;;;;;;22.70;84.70;;;;;;5033541;28;19909;-84
2022/07/09 11:58:51;;;;;;;;;;;22.10;85.60;;;;;;5025811;28;19971;-86
2022/07/09 12:01:16;;;;;;;;;;;22.00;89.90;;;;;;5030780;28;19913;-84
2022/07/09 12:03:48;;;;;;;;;;;21.70;88.50;;;;;;5043247;28;19909;-84
2022/07/09 12:06:14;;;;;;;;;;;21.30;89.50;;;;;;5031474;28;19912;-84
2022/07/09 12:08:40;;;;;;;;;;;21.10;90.50;;;;;;5027031;28;20315;-83
2022/07/09 12:11:05;;;;;;;;;;;21.10;90.60;;;;;;5030244;28;19967;-85
2022/07/09 12:13:31;;;;;;;;;;;21.40;90.70;;;;;;5031152;28;19905;-85
2022/07/09 12:15:56;;;;;;;;;;;21.30;91.30;;;;;;5034351;28;19913;-83
2022/07/09 12:18:22;;;;;;;;;;;21.00;91.30;;;;;;5039657;28;19905;-84
2022/07/09 12:20:47;;;;;;;;;;;20.90;92.30;;;;;;5027443;28;20008;-83
2022/07/09 12:23:13;;;;;;;;;;;20.90;93.20;;;;;;5029471;28;20273;-82
2022/07/09 12:25:41;;;;;;;;;;;20.70;93.30;;;;;;5045508;28;19959;-85
2022/07/09 12:28:07;;;;;;;;;;;20.50;95.20;;;;;;5043239;28;19932;-85
2022/07/09 12:30:32;;;;;;;;;;;20.40;94.30;;;;;;5034481;28;19967;-85
2022/07/09 12:32:58;;;;;;;;;;;20.40;96.00;;;;;;5030970;28;20434;-84
2022/07/09 12:35:23;;;;;;;;;;;20.70;96.80;;;;;;5031391;28;19995;-86
2022/07/09 12:37:49;;;;;;;;;;;21.00;97.80;;;;;;5031229;28;19928;-87
2022/07/09 12:40:14;;;;;;;;;;;21.10;97.60;;;;;;5030329;28;19905;-85
2022/07/09 12:42:40;;;;;;;;;;;21.10;99.10;;;;;;5030838;28;19916;-85
2022/07/09 12:45:06;;;;;;;;;;;21.10;99.90;;;;;;5029756;28;19977;-85
2022/07/09 12:47:32;;;;;;;;;;;21.10;99.90;;;;;;5038961;28;19933;-88
2022/07/09 12:49:57;;;;;;;;;;;21.30;99.90;;;;;;5035310;28;19904;-85
2022/07/09 12:52:22;;;;;;;;;;;21.40;99.90;;;;;;5028127;28;20283;-87
2022/07/09 12:54:48;;;;;;;;;;;21.40;99.90;;;;;;5039606;28;19932;-87
2022/07/09 12:57:13;;;;;;;;;;;21.20;99.80;;;;;;5049414;28;20423;-86
2022/07/09 12:59:39;;;;;;;;;;;21.10;99.60;;;;;;5050165;28;19932;-85
2022/07/09 13:02:05;;;;;;;;;;;20.90;99.90;;;;;;5051470;28;19912;-85
2022/07/09 13:04:30;;;;;;;;;;;20.70;99.90;;;;;;5049753;28;19917;-86
2022/07/09 13:06:56;;;;;;;;;;;20.60;99.90;;;;;;5049276;28;20007;-86
2022/07/09 13:09:21;;;;;;;;;;;20.40;99.90;;;;;;5044480;28;19909;-77
2022/07/09 13:11:49;;;;;;;;;;;20.20;99.90;;;;;;5048441;28;19908;-80
2022/07/09 13:14:14;;;;;;;;;;;19.90;99.90;;;;;;5056911;28;19931;-77
2022/07/09 13:16:40;;;;;;;;;;;19.70;99.90;;;;;;5049784;28;19905;-78
2022/07/09 13:19:05;;;;;;;;;;;19.90;99.90;;;;;;5047940;28;19962;-81
2022/07/09 13:21:31;;;;;;;;;;;20.00;99.90;;;;;;5047823;28;19912;-80
2022/07/09 13:23:57;;;;;;;;;;;20.70;99.90;;;;;;5049961;28;20298;-79
2022/07/09 13:26:22;;;;;;;;;;;21.20;99.90;;;;;;5049787;28;19911;-79
2022/07/09 13:28:48;;;;;;;;;;;21.80;99.90;;;;;;5046630;28;19948;-79
2022/07/09 13:31:13;;;;;;;;;;;22.30;98.90;;;;;;5045555;28;20394;-80
2022/07/09 13:33:39;;;;;;;;;;;22.90;94.60;;;;;;5054339;28;19908;-80
2022/07/09 13:36:05;;;;;;;;;;;25.90;85.20;;;;;;5051471;28;19999;-76
2022/07/09 13:38:30;;;;;;;;;;;26.30;76.20;;;;;;5048051;28;19916;-80
2022/07/09 13:40:56;;;;;;;;;;;25.60;76.90;;;;;;5047429;28;19917;-79
2022/07/09 13:43:24;;;;;;;;;;;25.50;75.40;;;;;;5046492;28;19913;-79
2022/07/09 13:45:49;;;;;;;;;;;24.60;78.00;;;;;;5047348;28;19999;-79
2022/07/09 13:48:15;;;;;;;;;;;24.30;80.30;;;;;;5046323;28;20483;-79
2022/07/09 13:50:40;;;;;;;;;;;24.50;79.80;;;;;;5048173;28;19908;-79
2022/07/09 13:53:05;;;;;;;;;;;24.30;79.80;;;;;;5030733;28;20413;-79
2022/07/09 13:55:31;;;;;;;;;;;24.30;78.30;;;;;;5054791;28;19916;-80
2022/07/09 13:57:56;;;;;;;;;;;23.80;77.90;;;;;;5048473;28;19909;-77
2022/07/09 14:00:22;;;;;;;;;;;23.80;77.70;;;;;;5048241;28;19911;-77
2022/07/09 14:02:48;;;;;;;;;;;23.00;80.00;;;;;;5048371;28;20360;-79
2022/07/09 14:05:13;;;;;;;;;;;22.70;81.60;;;;;;5049230;28;19923;-79
2022/07/09 14:07:39;;;;;;;;;;;22.30;84.70;;;;;;5050407;28;19912;-79
2022/07/09 14:10:04;;;;;;;;;;;21.70;86.30;;;;;;5052457;28;20461;-80